Portada
METAR-TAF:

METAR-TAF

Aeroports :

Custer County Airport

Custer, Dakota del Sud, Estats Units d'Amèrica

latitud: 43-43-59N, longitud: 103-37-03W, altitud: 1707 m

Observació

L'informe es va fer fa 18 minuts, a les 09:53 UTC
Vent 6 kt del Oest/Sud-Oest
Temperatura -7°C
Humitat 93%
Pressió 1006 hPa
Visibilitat: 16.1 km
Cel ennuvolat a una alçada de 10000 ft

METAR: KCUT 150953Z AUTO 25006KT 10SM BKN100 M07/M08 A2972 RMK AO2 SLP105 T10671083

Hora: 03:11 (10:11 UTC)


TAF: manca

Observacions i pronòstics meteorològics de més de 4000 aeroports (METAR i TAF).

Les estacions disponibles són els punts grocs i vermells al mapa.

Posi el ratolí al punt desitjat per veure el nom de l'estació.

Feu clic per veure les observacions i els pronòstics meteorològics.

Per canviar el mapa: feu clic els botons verds amb una creu de color negre per apropar; al botó verd amb un guió per allunyar la imatge; o en les fletxes verdes per a mapes adjacents.


METAR-TAF: